createdAt,value
2022-10-16T00:02:31.829Z,8.65
2022-10-16T00:05:18.841Z,8.62
2022-10-16T00:07:51.897Z,8.63
2022-10-16T00:10:38.838Z,8.64
2022-10-16T00:13:12.901Z,8.65
2022-10-16T00:16:02.821Z,8.63
2022-10-16T00:18:38.134Z,8.65
2022-10-16T00:21:28.829Z,8.67
2022-10-16T00:24:19.925Z,8.70
2022-10-16T00:27:06.833Z,8.72
2022-10-16T00:29:39.962Z,8.74
2022-10-16T00:32:28.125Z,8.76
2022-10-16T00:35:01.168Z,8.79
2022-10-16T00:37:47.841Z,8.81
2022-10-16T00:40:20.909Z,8.84
2022-10-16T00:43:07.873Z,8.87
2022-10-16T00:45:40.925Z,8.91
2022-10-16T00:48:30.837Z,8.95
2022-10-16T00:51:12.864Z,8.99
2022-10-16T00:54:06.842Z,9.03
2022-10-16T00:56:53.865Z,9.06
2022-10-16T00:59:31.943Z,9.09
2022-10-16T01:02:21.861Z,9.13
2022-10-16T01:04:59.504Z,9.15
2022-10-16T01:08:01.869Z,9.19
2022-10-16T01:10:43.946Z,9.23
2022-10-16T01:13:45.857Z,9.24
2022-10-16T01:16:33.851Z,9.27
2022-10-16T01:19:33.855Z,9.32
2022-10-16T01:22:20.878Z,9.35
2022-10-16T01:24:56.975Z,9.38
2022-10-16T01:27:47.844Z,9.40
2022-10-16T01:30:32.898Z,9.44
2022-10-16T01:33:41.912Z,9.47
2022-10-16T01:36:40.863Z,9.51
2022-10-16T01:39:38.866Z,9.53
2022-10-16T01:42:34.890Z,9.55
2022-10-16T01:45:12.305Z,9.58
2022-10-16T01:48:00.887Z,9.61
2022-10-16T01:50:35.175Z,9.63
2022-10-16T01:53:23.873Z,9.66
2022-10-16T01:55:59.990Z,9.68
2022-10-16T01:58:52.859Z,9.70
2022-10-16T02:01:32.962Z,9.73
2022-10-16T02:04:26.887Z,9.76
2022-10-16T02:07:00.974Z,9.78
2022-10-16T02:09:47.883Z,9.81
2022-10-16T02:12:40.882Z,9.82
2022-10-16T02:15:27.888Z,9.85
2022-10-16T02:18:01.163Z,9.87
2022-10-16T02:21:06.889Z,9.90
2022-10-16T02:24:01.852Z,9.92
2022-10-16T02:27:02.900Z,9.93
2022-10-16T02:29:57.892Z,9.96
2022-10-16T02:32:34.958Z,9.97
2022-10-16T02:35:34.898Z,9.97
2022-10-16T02:38:30.903Z,9.99
2022-10-16T02:41:17.918Z,10.01
2022-10-16T02:43:50.979Z,10.02
2022-10-16T02:46:37.926Z,10.04
2022-10-16T02:49:17.063Z,10.07
2022-10-16T02:52:03.901Z,10.09
2022-10-16T02:54:36.980Z,10.10
2022-10-16T02:57:24.169Z,10.11
2022-10-16T02:59:58.048Z,10.14
2022-10-16T03:02:44.914Z,10.15
2022-10-16T03:05:18.017Z,10.17
2022-10-16T03:08:07.909Z,10.20
2022-10-16T03:10:40.984Z,10.20
2022-10-16T03:13:27.916Z,10.20
2022-10-16T03:16:07.900Z,10.20
2022-10-16T03:19:03.924Z,10.23
2022-10-16T03:21:50.918Z,10.24
2022-10-16T03:24:24.052Z,10.24
2022-10-16T03:27:12.321Z,10.25
2022-10-16T03:29:44.998Z,10.27
2022-10-16T03:32:33.087Z,10.28
2022-10-16T03:35:06.085Z,10.28
2022-10-16T03:37:52.914Z,10.30
2022-10-16T03:40:28.679Z,10.30
2022-10-16T03:45:59.939Z,10.32
2022-10-16T03:48:53.925Z,10.33
2022-10-16T03:51:43.949Z,10.33
2022-10-16T03:54:18.099Z,10.32
2022-10-16T03:57:04.916Z,10.33
2022-10-16T03:59:38.049Z,10.35
2022-10-16T04:02:27.924Z,10.35
2022-10-16T04:05:01.077Z,10.37
2022-10-16T04:07:47.932Z,10.37
2022-10-16T04:10:21.069Z,10.39
2022-10-16T04:13:08.052Z,10.38
2022-10-16T04:15:41.014Z,10.41
2022-10-16T04:18:27.954Z,10.41
2022-10-16T04:21:02.039Z,10.42
2022-10-16T04:23:49.973Z,10.43
2022-10-16T04:26:23.159Z,10.44
2022-10-16T04:29:09.941Z,10.43
2022-10-16T04:31:44.983Z,10.45
2022-10-16T04:34:31.934Z,10.45
2022-10-16T04:37:11.994Z,10.45
2022-10-16T04:40:06.979Z,10.45
2022-10-16T04:42:53.937Z,10.46
2022-10-16T04:45:34.012Z,10.47
2022-10-16T04:48:27.944Z,10.47
2022-10-16T04:51:14.981Z,10.48
2022-10-16T04:53:54.985Z,10.48
2022-10-16T04:56:54.004Z,10.48
2022-10-16T04:59:40.981Z,10.50
2022-10-16T05:02:14.065Z,10.51
2022-10-16T05:05:03.015Z,10.52
2022-10-16T05:07:52.987Z,10.52
2022-10-16T05:10:40.002Z,10.52
2022-10-16T05:13:13.074Z,10.52
2022-10-16T05:16:00.005Z,10.55
2022-10-16T05:18:39.995Z,10.55
2022-10-16T05:21:34.029Z,10.56
2022-10-16T05:24:28.013Z,10.58
2022-10-16T05:27:26.159Z,10.59
2022-10-16T05:30:14.005Z,10.60
2022-10-16T05:32:47.092Z,10.63
2022-10-16T05:35:34.003Z,10.63
2022-10-16T05:38:28.008Z,10.65
2022-10-16T05:41:22.000Z,10.69
2022-10-16T05:44:12.008Z,10.72
2022-10-16T05:46:52.009Z,10.76
2022-10-16T05:49:41.291Z,10.81
2022-10-16T05:52:15.077Z,10.86
2022-10-16T05:55:02.010Z,10.90
2022-10-16T05:57:42.022Z,10.96
2022-10-16T06:00:36.006Z,11.00
2022-10-16T06:03:22.999Z,11.02
2022-10-16T06:05:56.107Z,11.07
2022-10-16T06:08:43.013Z,11.08
2022-10-16T06:11:26.986Z,11.12
2022-10-16T06:14:17.011Z,11.14
2022-10-16T06:16:56.995Z,11.16
2022-10-16T06:19:44.010Z,11.19
2022-10-16T06:22:24.105Z,11.22
2022-10-16T06:25:18.019Z,11.24
2022-10-16T06:28:05.073Z,11.27
2022-10-16T06:30:38.110Z,11.29
2022-10-16T06:33:25.006Z,11.32
2022-10-16T06:35:58.105Z,11.35
2022-10-16T06:38:50.901Z,11.37
2022-10-16T06:41:38.067Z,11.43
2022-10-16T06:44:24.997Z,11.45
2022-10-16T06:46:58.128Z,11.50
2022-10-16T06:49:51.767Z,11.54
2022-10-16T06:52:27.433Z,11.62
2022-10-16T06:55:14.061Z,11.70
2022-10-16T06:57:47.121Z,11.81
2022-10-16T07:00:34.050Z,11.92
2022-10-16T07:03:14.060Z,12.09
2022-10-16T07:06:00.996Z,12.20
2022-10-16T07:08:40.985Z,12.30
2022-10-16T07:11:39.083Z,12.45
2022-10-16T07:14:28.070Z,12.61
2022-10-16T07:17:01.136Z,12.77
2022-10-16T07:19:48.052Z,12.92
2022-10-16T07:22:28.252Z,13.07
2022-10-16T07:25:16.141Z,13.19
2022-10-16T07:27:49.118Z,13.26
2022-10-16T07:30:36.047Z,13.29
2022-10-16T07:33:16.067Z,13.34
2022-10-16T07:36:15.185Z,13.39
2022-10-16T07:39:03.091Z,13.42
2022-10-16T07:41:44.100Z,13.50
2022-10-16T07:44:32.902Z,13.58
2022-10-16T07:47:13.081Z,13.62
2022-10-16T07:50:07.057Z,13.66
2022-10-16T07:52:54.101Z,13.77
2022-10-16T07:55:27.121Z,13.78
2022-10-16T07:58:14.060Z,13.77
2022-10-16T08:00:54.248Z,13.80
2022-10-16T08:03:41.087Z,13.81
2022-10-16T08:06:26.703Z,13.79
2022-10-16T08:09:23.081Z,13.83
2022-10-16T08:12:10.115Z,13.95
2022-10-16T08:14:45.671Z,14.09
2022-10-16T08:17:34.053Z,14.24
2022-10-16T08:20:07.207Z,14.36
2022-10-16T08:22:54.057Z,14.47
2022-10-16T08:25:37.096Z,14.58
2022-10-16T08:28:24.189Z,14.71
2022-10-16T08:31:05.087Z,14.87
2022-10-16T08:34:00.094Z,15.04
2022-10-16T08:36:54.107Z,15.17
2022-10-16T08:39:43.091Z,15.22
2022-10-16T08:42:53.092Z,15.33
2022-10-16T08:46:04.149Z,15.41
2022-10-16T08:49:05.080Z,15.58
2022-10-16T08:52:01.138Z,15.70
2022-10-16T08:54:55.094Z,15.81
2022-10-16T08:57:32.526Z,15.93
2022-10-16T09:00:21.126Z,16.03
2022-10-16T09:03:13.465Z,16.15
2022-10-16T09:06:13.079Z,16.19
2022-10-16T09:08:52.188Z,16.31
2022-10-16T09:11:57.126Z,16.39
2022-10-16T09:14:37.568Z,16.47
2022-10-16T09:17:38.121Z,16.53
2022-10-16T09:20:47.131Z,16.61
2022-10-16T09:23:43.129Z,16.68
2022-10-16T09:26:30.119Z,16.71
2022-10-16T09:29:03.234Z,16.76
2022-10-16T09:31:51.130Z,16.78
2022-10-16T09:34:51.128Z,16.81
2022-10-16T09:37:46.109Z,16.82
2022-10-16T09:40:36.120Z,16.83
2022-10-16T09:43:13.481Z,16.84
2022-10-16T09:46:09.132Z,16.84
2022-10-16T09:48:51.183Z,16.86
2022-10-16T09:51:44.119Z,16.82
2022-10-16T09:54:17.178Z,16.80
2022-10-16T09:57:15.132Z,16.78
2022-10-16T10:00:11.129Z,16.72
2022-10-16T10:03:06.159Z,16.62
2022-10-16T10:05:58.540Z,16.58
2022-10-16T10:08:34.212Z,16.57
2022-10-16T10:11:21.123Z,16.52
2022-10-16T10:14:01.129Z,16.52
2022-10-16T10:16:57.458Z,16.53
2022-10-16T10:19:57.129Z,16.53
2022-10-16T10:22:52.221Z,16.55
2022-10-16T10:26:02.113Z,16.57
2022-10-16T10:28:38.256Z,16.59
2022-10-16T10:31:32.120Z,16.59
2022-10-16T10:34:34.120Z,16.61
2022-10-16T10:37:41.180Z,16.61
2022-10-16T10:40:56.123Z,16.63
2022-10-16T10:43:45.188Z,16.69
2022-10-16T10:46:30.996Z,16.72
2022-10-16T10:49:18.153Z,16.73
2022-10-16T10:52:15.199Z,16.76
2022-10-16T10:55:22.134Z,16.78
2022-10-16T10:58:16.097Z,16.80
2022-10-16T11:01:29.205Z,16.76
2022-10-16T11:04:26.146Z,16.77
2022-10-16T11:07:30.371Z,16.74
2022-10-16T11:10:35.454Z,16.74
2022-10-16T11:14:01.188Z,16.77
2022-10-16T11:16:44.151Z,16.77
2022-10-16T11:19:52.126Z,16.73
2022-10-16T11:22:53.186Z,16.76
2022-10-16T11:25:48.147Z,16.80
2022-10-16T11:28:41.260Z,16.81
2022-10-16T11:31:39.233Z,16.82
2022-10-16T11:34:30.735Z,16.85
2022-10-16T11:37:42.174Z,16.90
2022-10-16T11:40:48.154Z,16.97
2022-10-16T11:43:57.168Z,17.00
2022-10-16T11:46:59.428Z,17.02
2022-10-16T11:50:00.155Z,17.03
2022-10-16T11:53:08.259Z,17.07
2022-10-16T11:55:55.176Z,17.07
2022-10-16T11:58:43.242Z,17.09
2022-10-16T12:01:41.173Z,17.12
2022-10-16T12:04:35.328Z,17.13
2022-10-16T12:07:40.171Z,17.14
2022-10-16T12:10:47.333Z,17.17
2022-10-16T12:13:41.168Z,17.18
2022-10-16T12:16:20.273Z,17.20
2022-10-16T12:19:23.192Z,17.20
2022-10-16T12:22:04.185Z,17.16
2022-10-16T12:24:58.165Z,17.09
2022-10-16T12:27:53.189Z,17.05
2022-10-16T12:30:43.186Z,17.04
2022-10-16T12:33:45.209Z,17.04
2022-10-16T12:36:49.181Z,17.05
2022-10-16T12:39:36.201Z,17.05
2022-10-16T12:42:12.250Z,17.06
2022-10-16T12:44:59.196Z,17.08
2022-10-16T12:47:38.292Z,17.07
2022-10-16T12:50:39.250Z,17.06
2022-10-16T12:53:27.380Z,17.05
2022-10-16T12:56:23.187Z,17.04
2022-10-16T12:59:03.308Z,17.03
2022-10-16T13:02:26.239Z,17.02
2022-10-16T13:05:17.212Z,16.99
2022-10-16T13:08:26.231Z,16.90
2022-10-16T13:11:25.223Z,16.83
2022-10-16T13:14:04.292Z,16.83
2022-10-16T13:17:10.208Z,16.80
2022-10-16T13:19:58.303Z,16.79
2022-10-16T13:23:04.193Z,16.77
2022-10-16T13:25:59.339Z,16.74
2022-10-16T13:28:47.268Z,16.68
2022-10-16T13:31:34.224Z,16.66
2022-10-16T13:34:25.215Z,16.61
2022-10-16T13:37:07.223Z,16.57
2022-10-16T13:39:54.216Z,16.52
2022-10-16T13:42:41.219Z,16.48
2022-10-16T13:45:30.222Z,16.45
2022-10-16T13:48:21.217Z,16.42
2022-10-16T13:51:14.303Z,16.37
2022-10-16T13:53:48.306Z,16.36
2022-10-16T13:56:38.241Z,16.34
2022-10-16T13:59:21.247Z,16.33
2022-10-16T14:02:25.519Z,16.33
2022-10-16T14:05:17.249Z,16.32
2022-10-16T14:07:57.227Z,16.31
2022-10-16T14:10:44.254Z,16.33
2022-10-16T14:13:26.316Z,16.36
2022-10-16T14:16:23.252Z,16.36
2022-10-16T14:19:14.245Z,16.37
2022-10-16T14:22:02.244Z,16.38
2022-10-16T14:24:52.240Z,16.38
2022-10-16T14:27:51.324Z,16.36
2022-10-16T14:30:48.253Z,16.37
2022-10-16T14:33:38.248Z,16.36
2022-10-16T14:36:21.647Z,16.27
2022-10-16T14:39:14.291Z,16.25
2022-10-16T14:41:56.326Z,16.23
2022-10-16T14:44:43.275Z,16.17
2022-10-16T14:47:23.463Z,16.11
2022-10-16T14:50:10.259Z,16.01
2022-10-16T14:52:44.504Z,15.95
2022-10-16T14:55:32.265Z,15.90
2022-10-16T14:58:05.346Z,15.86
2022-10-16T15:00:52.253Z,15.78
2022-10-16T15:03:25.425Z,15.72
2022-10-16T15:06:18.267Z,15.63
2022-10-16T15:08:51.359Z,15.58
2022-10-16T15:11:40.265Z,15.52
2022-10-16T15:14:20.262Z,15.46
2022-10-16T15:17:16.386Z,15.38
2022-10-16T15:20:06.259Z,15.34
2022-10-16T15:22:39.372Z,15.31
2022-10-16T15:25:40.284Z,15.27
2022-10-16T15:28:13.387Z,15.29
2022-10-16T15:31:02.291Z,15.27
2022-10-16T15:33:42.270Z,15.27
2022-10-16T15:36:44.328Z,15.25
2022-10-16T15:39:40.564Z,15.22
2022-10-16T15:42:35.283Z,15.15
2022-10-16T15:45:22.277Z,15.09
2022-10-16T15:47:55.379Z,15.04
2022-10-16T15:53:23.363Z,14.95
2022-10-16T15:56:11.311Z,14.91
2022-10-16T15:58:44.426Z,14.88
2022-10-16T16:01:31.329Z,14.82
2022-10-16T16:04:15.446Z,14.77
2022-10-16T16:07:14.319Z,14.67
2022-10-16T16:09:54.305Z,14.60
2022-10-16T16:12:48.293Z,14.51
2022-10-16T16:15:35.325Z,14.45
2022-10-16T16:18:17.306Z,14.36
2022-10-16T16:21:13.623Z,14.27
2022-10-16T16:24:00.304Z,14.18
2022-10-16T16:26:43.320Z,14.10
2022-10-16T16:29:30.299Z,14.00
2022-10-16T16:32:03.402Z,13.93
2022-10-16T16:34:50.311Z,13.87
2022-10-16T16:37:30.642Z,13.82
2022-10-16T16:40:24.310Z,13.75
2022-10-16T16:43:11.331Z,13.70
2022-10-16T16:45:51.321Z,13.61
2022-10-16T16:48:39.321Z,13.55
2022-10-16T16:51:23.303Z,13.50
2022-10-16T16:54:10.295Z,13.44
2022-10-16T16:56:46.827Z,13.37
2022-10-16T16:59:33.342Z,13.32
2022-10-16T17:02:14.356Z,13.27
2022-10-16T17:05:08.313Z,13.20
2022-10-16T17:08:02.329Z,13.13
2022-10-16T17:10:52.335Z,13.05
2022-10-16T17:13:33.353Z,12.97
2022-10-16T17:16:27.346Z,12.92
2022-10-16T17:19:15.353Z,12.85
2022-10-16T17:21:49.468Z,12.83
2022-10-16T17:24:36.344Z,12.74
2022-10-16T17:27:10.137Z,12.67
2022-10-16T17:29:59.351Z,12.62
2022-10-16T17:32:32.517Z,12.57
2022-10-16T17:35:19.338Z,12.51
2022-10-16T17:37:52.483Z,12.47
2022-10-16T17:40:39.350Z,12.40
2022-10-16T17:43:13.414Z,12.35
2022-10-16T17:46:00.368Z,12.29
2022-10-16T17:48:33.442Z,12.24
2022-10-16T17:51:22.373Z,12.15
2022-10-16T17:54:04.354Z,12.08
2022-10-16T17:56:51.356Z,12.01
2022-10-16T17:59:31.373Z,11.96
2022-10-16T18:02:18.371Z,11.93
2022-10-16T18:04:51.990Z,11.91
2022-10-16T18:07:38.439Z,11.85
2022-10-16T18:10:12.600Z,11.81
2022-10-16T18:12:59.366Z,11.76
2022-10-16T18:15:32.443Z,11.71
2022-10-16T18:18:19.370Z,11.64
2022-10-16T18:20:59.379Z,11.58
2022-10-16T18:23:51.957Z,11.51
2022-10-16T18:26:33.373Z,11.42
2022-10-16T18:29:27.366Z,11.39
2022-10-16T18:32:14.374Z,11.31
2022-10-16T18:34:54.367Z,11.27
2022-10-16T18:37:51.456Z,11.22
2022-10-16T18:40:45.398Z,11.16
2022-10-16T18:43:32.388Z,11.13
2022-10-16T18:46:08.469Z,11.10
2022-10-16T18:48:56.378Z,11.04
2022-10-16T18:51:45.381Z,11.00
2022-10-16T18:54:39.373Z,10.95
2022-10-16T18:57:33.390Z,10.93
2022-10-16T19:00:20.373Z,10.91
2022-10-16T19:02:53.461Z,10.85
2022-10-16T19:05:40.416Z,10.83
2022-10-16T19:08:13.674Z,10.81
2022-10-16T19:11:00.384Z,10.78
2022-10-16T19:13:33.475Z,10.75
2022-10-16T19:16:26.404Z,10.68
2022-10-16T19:19:02.486Z,10.64
2022-10-16T19:21:50.382Z,10.61
2022-10-16T19:24:30.413Z,10.56
2022-10-16T19:27:17.400Z,10.54
2022-10-16T19:29:57.392Z,10.49
2022-10-16T19:32:56.500Z,10.43
2022-10-16T19:35:43.410Z,10.39
2022-10-16T19:38:16.472Z,10.35
2022-10-16T19:41:03.441Z,10.33
2022-10-16T19:43:36.606Z,10.25
2022-10-16T19:46:25.413Z,10.20
2022-10-16T19:49:13.419Z,10.17
2022-10-16T19:52:07.412Z,10.07
2022-10-16T19:54:55.417Z,10.00
2022-10-16T19:57:28.552Z,9.97
2022-10-16T20:00:16.409Z,9.96
2022-10-16T20:02:49.501Z,9.98
2022-10-16T20:05:36.415Z,9.97
2022-10-16T20:08:09.487Z,9.97
2022-10-16T20:10:58.418Z,9.92
2022-10-16T20:13:31.531Z,9.93
2022-10-16T20:16:19.414Z,9.90
2022-10-16T20:18:54.515Z,9.89
2022-10-16T20:21:41.427Z,9.86
2022-10-16T20:24:22.421Z,9.82
2022-10-16T20:27:09.428Z,9.81
2022-10-16T20:29:42.504Z,9.74
2022-10-16T20:32:29.409Z,9.70
2022-10-16T20:35:16.439Z,9.69
2022-10-16T20:38:03.435Z,9.67
2022-10-16T20:40:43.702Z,9.64
2022-10-16T20:43:30.491Z,9.61
2022-10-16T20:46:13.548Z,9.61
2022-10-16T20:49:10.712Z,9.58
2022-10-16T20:51:49.995Z,9.52
2022-10-16T20:54:36.453Z,9.48
2022-10-16T20:57:16.447Z,9.45
2022-10-16T21:00:10.459Z,9.44
2022-10-16T21:02:58.471Z,9.41
2022-10-16T21:05:34.431Z,9.37
2022-10-16T21:08:21.463Z,9.36
2022-10-16T21:10:54.508Z,9.33
2022-10-16T21:13:41.459Z,9.30
2022-10-16T21:16:15.534Z,9.27
2022-10-16T21:19:02.433Z,9.25
2022-10-16T21:21:38.333Z,9.23
2022-10-16T21:24:25.459Z,9.17
2022-10-16T21:26:58.615Z,9.13
2022-10-16T21:32:23.533Z,9.10
2022-10-16T21:35:11.446Z,9.05
2022-10-16T21:37:44.518Z,9.04
2022-10-16T21:40:31.468Z,9.03
2022-10-16T21:43:11.464Z,8.97
2022-10-16T21:46:05.455Z,8.93
2022-10-16T21:48:52.474Z,8.89
2022-10-16T21:51:25.526Z,8.84
2022-10-16T21:54:15.470Z,8.82
2022-10-16T21:56:55.483Z,8.81
2022-10-16T21:59:49.464Z,8.78
2022-10-16T22:02:36.460Z,8.75
2022-10-16T22:05:09.634Z,8.73
2022-10-16T22:07:56.470Z,8.70
2022-10-16T22:10:29.534Z,8.70
2022-10-16T22:13:16.491Z,8.68
2022-10-16T22:15:56.087Z,8.64
2022-10-16T22:18:43.493Z,8.60
2022-10-16T22:21:16.554Z,8.56
2022-10-16T22:24:05.459Z,8.51
2022-10-16T22:26:46.480Z,8.51
2022-10-16T22:29:40.483Z,8.51
2022-10-16T22:32:27.482Z,8.53
2022-10-16T22:35:00.541Z,8.50
2022-10-16T22:37:54.494Z,8.50
2022-10-16T22:40:49.487Z,8.48
2022-10-16T22:43:36.482Z,8.45
2022-10-16T22:46:11.570Z,8.45
2022-10-16T22:48:58.517Z,8.42
2022-10-16T22:51:34.039Z,8.40
2022-10-16T22:54:20.497Z,8.37
2022-10-16T22:57:00.501Z,8.36
2022-10-16T22:59:54.493Z,8.27
2022-10-16T23:02:41.523Z,8.25
2022-10-16T23:05:22.497Z,8.22
2022-10-16T23:08:16.493Z,8.20
2022-10-16T23:11:07.514Z,8.15
2022-10-16T23:13:45.769Z,8.14
2022-10-16T23:16:32.515Z,8.13
2022-10-16T23:19:05.605Z,8.14
2022-10-16T23:21:52.505Z,8.11
2022-10-16T23:24:25.591Z,8.12
2022-10-16T23:27:12.496Z,8.11
2022-10-16T23:29:45.692Z,8.11
2022-10-16T23:32:32.514Z,8.09
2022-10-16T23:35:12.486Z,8.07
2022-10-16T23:38:06.508Z,8.07
2022-10-16T23:40:53.512Z,8.04
2022-10-16T23:43:26.594Z,8.04
2022-10-16T23:46:15.630Z,8.03
2022-10-16T23:48:48.561Z,8.00
2022-10-16T23:51:35.537Z,7.98
2022-10-16T23:54:08.586Z,7.95
2022-10-16T23:56:55.523Z,7.91
2022-10-16T23:59:35.515Z,7.86
